createdAt,value
2022-11-07T00:00:06.475Z,97371.56
2022-11-07T00:02:33.060Z,97375.00
2022-11-07T00:04:59.589Z,97380.94
2022-11-07T00:07:26.110Z,97374.03
2022-11-07T00:09:52.592Z,97376.69
2022-11-07T00:12:19.155Z,97378.34
2022-11-07T00:14:45.654Z,97376.63
2022-11-07T00:17:12.162Z,97386.94
2022-11-07T00:19:38.666Z,97386.06
2022-11-07T00:22:05.191Z,97394.53
2022-11-07T00:24:31.709Z,97391.97
2022-11-07T00:26:58.228Z,97389.34
2022-11-07T00:29:24.705Z,97402.25
2022-11-07T00:31:51.244Z,97407.34
2022-11-07T00:34:17.734Z,97416.78
2022-11-07T00:36:44.228Z,97413.38
2022-11-07T00:39:11.051Z,97409.84
2022-11-07T00:41:37.564Z,97416.78
2022-11-07T00:44:04.085Z,97418.47
2022-11-07T00:46:30.575Z,97414.06
2022-11-07T00:48:57.087Z,97427.03
2022-11-07T00:51:25.532Z,97427.91
2022-11-07T00:53:52.187Z,97427.00
2022-11-07T00:56:20.529Z,97416.63
2022-11-07T00:58:47.546Z,97395.81
2022-11-07T01:01:22.369Z,97440.66
2022-11-07T01:04:07.575Z,97430.44
2022-11-07T01:06:35.333Z,97443.28
2022-11-07T01:09:01.891Z,97439.00
2022-11-07T01:11:29.005Z,97426.88
2022-11-07T01:13:56.524Z,97438.09
2022-11-07T01:16:23.074Z,97441.53
2022-11-07T01:18:49.630Z,97436.44
2022-11-07T01:21:16.795Z,97441.53
2022-11-07T01:23:43.604Z,97441.53
2022-11-07T01:26:10.658Z,97445.81
2022-11-07T01:28:37.203Z,97445.78
2022-11-07T01:31:05.326Z,97449.22
2022-11-07T01:33:31.859Z,97441.53
2022-11-07T01:36:06.335Z,97441.53
2022-11-07T01:38:33.010Z,97443.22
2022-11-07T01:41:18.022Z,97443.19
2022-11-07T01:43:47.279Z,97452.63
2022-11-07T01:46:13.879Z,97443.22
2022-11-07T01:48:40.657Z,97443.22
2022-11-07T01:51:07.179Z,97439.69
2022-11-07T01:53:34.823Z,97438.88
2022-11-07T01:56:02.746Z,97446.66
2022-11-07T01:58:29.260Z,97446.59
2022-11-07T02:00:55.778Z,97462.03
2022-11-07T02:03:22.255Z,97332.19
2022-11-07T02:05:53.874Z,97450.00
2022-11-07T02:08:20.405Z,97456.00
2022-11-07T02:10:46.885Z,97450.88
2022-11-07T02:13:17.009Z,97454.38
2022-11-07T02:15:43.627Z,97454.34
2022-11-07T02:18:10.089Z,97452.63
2022-11-07T02:20:36.608Z,97453.47
2022-11-07T02:23:13.204Z,97447.47
2022-11-07T02:25:39.938Z,97420.72
2022-11-07T02:28:07.535Z,97422.47
2022-11-07T02:30:34.762Z,97441.53
2022-11-07T02:33:02.151Z,97435.50
2022-11-07T02:35:34.188Z,97446.66
2022-11-07T02:38:01.385Z,97446.66
2022-11-07T02:40:28.360Z,97456.91
2022-11-07T02:42:54.887Z,97451.78
2022-11-07T02:45:28.884Z,97448.31
2022-11-07T02:47:55.445Z,97452.63
2022-11-07T02:50:21.954Z,97455.19
2022-11-07T02:52:48.435Z,97460.31
2022-11-07T02:55:15.179Z,97459.47
2022-11-07T02:57:41.683Z,97454.34
2022-11-07T03:00:08.854Z,97454.34
2022-11-07T03:02:35.435Z,97454.34
2022-11-07T03:05:02.000Z,97459.47
2022-11-07T03:07:28.500Z,97457.72
2022-11-07T03:09:55.015Z,97449.13
2022-11-07T03:12:21.568Z,97449.97
2022-11-07T03:14:48.088Z,97465.41
2022-11-07T03:17:14.671Z,97474.81
2022-11-07T03:19:41.618Z,97475.63
2022-11-07T03:22:08.095Z,97473.09
2022-11-07T03:24:34.616Z,97475.63
2022-11-07T03:27:01.171Z,97467.97
2022-11-07T03:29:27.655Z,97481.63
2022-11-07T03:31:54.159Z,97479.09
2022-11-07T03:34:20.659Z,97471.41
2022-11-07T03:36:47.169Z,97465.41
2022-11-07T03:39:13.670Z,97473.97
2022-11-07T03:41:40.152Z,97474.81
2022-11-07T03:44:06.781Z,97475.59
2022-11-07T03:46:33.601Z,97484.19
2022-11-07T03:49:00.090Z,97488.44
2022-11-07T03:51:26.617Z,97494.41
2022-11-07T03:53:53.096Z,97505.56
2022-11-07T03:56:19.612Z,97502.13
2022-11-07T03:58:46.092Z,97510.69
2022-11-07T04:01:13.364Z,97508.13
2022-11-07T04:03:39.856Z,97508.13
2022-11-07T04:06:06.534Z,97512.38
2022-11-07T04:08:33.114Z,97511.50
2022-11-07T04:10:59.678Z,97506.28
2022-11-07T04:13:44.531Z,97512.38
2022-11-07T04:16:29.759Z,97520.06
2022-11-07T04:18:56.966Z,97509.78
2022-11-07T04:21:23.580Z,97520.94
2022-11-07T04:23:50.059Z,97507.25
2022-11-07T04:26:51.690Z,97503.00
2022-11-07T04:29:18.148Z,97511.50
2022-11-07T04:31:44.630Z,97514.94
2022-11-07T04:34:11.159Z,97508.09
2022-11-07T04:36:37.651Z,97517.44
2022-11-07T04:39:04.183Z,97521.72
2022-11-07T04:41:30.678Z,97513.22
2022-11-07T04:43:57.208Z,97510.66
2022-11-07T04:46:24.147Z,97526.84
2022-11-07T04:48:50.679Z,97526.84
2022-11-07T04:51:19.006Z,97520.84
2022-11-07T04:53:45.479Z,97524.28
2022-11-07T04:56:12.001Z,97529.47
2022-11-07T04:58:38.500Z,97527.72
2022-11-07T05:01:05.073Z,97518.16
2022-11-07T05:03:31.628Z,97529.47
2022-11-07T05:05:58.146Z,97524.28
2022-11-07T05:08:24.779Z,97511.50
2022-11-07T05:10:51.285Z,97508.97
2022-11-07T05:13:18.588Z,97508.13
2022-11-07T05:15:45.071Z,97517.41
2022-11-07T05:18:11.653Z,97520.88
2022-11-07T05:20:38.810Z,97523.44
2022-11-07T05:23:19.186Z,97531.97
2022-11-07T05:25:48.931Z,97529.41
2022-11-07T05:28:28.041Z,97531.97
2022-11-07T05:31:00.537Z,97526.84
2022-11-07T05:33:27.248Z,97511.34
2022-11-07T05:35:53.759Z,97524.28
2022-11-07T05:38:20.259Z,97531.97
2022-11-07T05:40:46.778Z,97537.97
2022-11-07T05:43:14.626Z,97543.94
2022-11-07T05:45:44.115Z,97542.22
2022-11-07T05:48:11.975Z,97554.13
2022-11-07T05:50:38.501Z,97553.31
2022-11-07T05:53:05.160Z,97555.03
2022-11-07T05:55:31.702Z,97561.03
2022-11-07T05:57:59.097Z,97565.25
2022-11-07T06:00:28.319Z,97571.25
2022-11-07T06:02:55.894Z,97574.72
2022-11-07T06:05:24.364Z,97573.81
2022-11-07T06:07:51.085Z,97567.81
2022-11-07T06:10:17.637Z,97565.22
2022-11-07T06:12:44.222Z,97578.94
2022-11-07T06:15:11.093Z,97580.66
2022-11-07T06:17:37.591Z,97577.31
2022-11-07T06:20:04.696Z,97576.44
2022-11-07T06:22:31.294Z,97572.19
2022-11-07T06:24:57.797Z,97573.88
2022-11-07T06:27:24.278Z,97575.56
2022-11-07T06:29:50.779Z,97577.31
2022-11-07T06:32:17.250Z,97583.22
2022-11-07T06:34:43.773Z,97581.59
2022-11-07T06:37:10.250Z,97588.41
2022-11-07T06:39:36.806Z,97589.19
2022-11-07T06:42:03.321Z,97592.72
2022-11-07T06:44:29.842Z,97595.22
2022-11-07T06:46:56.323Z,97583.16
2022-11-07T06:49:22.843Z,97590.13
2022-11-07T06:51:49.342Z,97578.94
2022-11-07T06:54:15.892Z,97593.50
2022-11-07T06:56:42.392Z,97603.81
2022-11-07T06:59:08.902Z,97604.63
2022-11-07T07:01:35.503Z,97600.31
2022-11-07T07:04:02.079Z,97608.94
2022-11-07T07:06:28.563Z,97607.25
2022-11-07T07:08:55.093Z,97601.25
2022-11-07T07:11:21.589Z,97604.69
2022-11-07T07:13:48.156Z,97614.94
2022-11-07T07:16:14.631Z,97620.00
2022-11-07T07:18:41.181Z,97621.69
2022-11-07T07:21:12.216Z,97631.09
2022-11-07T07:23:38.837Z,97624.16
2022-11-07T07:26:07.379Z,97633.59
2022-11-07T07:28:34.199Z,97635.28
2022-11-07T07:31:15.666Z,97636.13
2022-11-07T07:33:42.459Z,97624.06
2022-11-07T07:36:09.442Z,97631.81
2022-11-07T07:38:36.096Z,97641.16
2022-11-07T07:41:02.589Z,97639.44
2022-11-07T07:43:29.600Z,97631.75
2022-11-07T07:46:05.916Z,97639.44
2022-11-07T07:48:32.451Z,97638.59
2022-11-07T07:50:59.020Z,97638.59
2022-11-07T07:53:25.547Z,97632.59
2022-11-07T07:55:56.742Z,97631.75
2022-11-07T07:58:23.247Z,97631.72
2022-11-07T08:00:52.226Z,97631.59
2022-11-07T08:03:19.181Z,97637.72
2022-11-07T08:05:54.412Z,97636.03
2022-11-07T08:08:21.113Z,97636.84
2022-11-07T08:10:53.474Z,97645.41
2022-11-07T08:13:21.474Z,97647.97
2022-11-07T08:15:48.022Z,97644.53
2022-11-07T08:18:14.554Z,97651.41
2022-11-07T08:20:41.022Z,97646.19
2022-11-07T08:23:12.916Z,97650.56
2022-11-07T08:25:43.250Z,97654.81
2022-11-07T08:28:09.778Z,97659.97
2022-11-07T08:30:36.269Z,97649.72
2022-11-07T08:33:03.283Z,97660.84
2022-11-07T08:35:34.803Z,97654.59
2022-11-07T08:38:04.763Z,97659.16
2022-11-07T08:40:31.315Z,97666.84
2022-11-07T08:43:00.923Z,97668.56
2022-11-07T08:45:27.639Z,97657.47
2022-11-07T08:47:58.163Z,97659.16
2022-11-07T08:50:25.275Z,97663.41
2022-11-07T08:52:51.747Z,97659.16
2022-11-07T08:55:18.359Z,97660.00
2022-11-07T08:57:44.881Z,97648.84
2022-11-07T09:00:11.946Z,97544.69
2022-11-07T09:03:17.803Z,97652.34
2022-11-07T09:05:24.932Z,97657.47
2022-11-07T09:07:51.463Z,97653.25
2022-11-07T09:10:18.003Z,97659.22
2022-11-07T09:12:45.770Z,97663.47
2022-11-07T09:15:12.245Z,97660.06
2022-11-07T09:17:38.805Z,97658.38
2022-11-07T09:20:05.754Z,97652.22
2022-11-07T09:22:32.245Z,97660.94
2022-11-07T09:24:58.749Z,97659.25
2022-11-07T09:27:25.235Z,97663.47
2022-11-07T09:29:51.771Z,97655.72
2022-11-07T09:32:43.170Z,97659.22
2022-11-07T09:35:05.408Z,97666.94
2022-11-07T09:37:32.012Z,97663.50
2022-11-07T09:39:58.564Z,97661.81
2022-11-07T09:42:33.985Z,97667.75
2022-11-07T09:45:00.499Z,97666.06
2022-11-07T09:47:33.514Z,97647.91
2022-11-07T09:50:01.606Z,97648.75
2022-11-07T09:52:31.721Z,97661.81
2022-11-07T09:55:27.072Z,97666.09
2022-11-07T09:58:00.105Z,97664.34
2022-11-07T10:00:26.587Z,97676.25
2022-11-07T10:02:57.650Z,97675.47
2022-11-07T10:05:33.886Z,97678.91
2022-11-07T10:08:28.213Z,97662.41
2022-11-07T10:10:59.877Z,97659.84
2022-11-07T10:13:41.584Z,97671.22
2022-11-07T10:16:33.060Z,97670.34
2022-11-07T10:19:06.225Z,97672.06
2022-11-07T10:21:57.752Z,97677.19
2022-11-07T10:24:49.070Z,97675.38
2022-11-07T10:27:15.565Z,97672.06
2022-11-07T10:29:44.748Z,97668.63
2022-11-07T10:32:11.459Z,97666.09
2022-11-07T10:34:40.872Z,97663.41
2022-11-07T10:37:08.653Z,97666.97
2022-11-07T10:39:35.183Z,97664.41
2022-11-07T10:42:11.038Z,97665.22
2022-11-07T10:44:38.842Z,97666.97
2022-11-07T10:47:23.777Z,97664.41
2022-11-07T10:49:58.419Z,97655.84
2022-11-07T10:52:25.105Z,97655.84
2022-11-07T10:54:51.674Z,97663.53
2022-11-07T10:57:22.847Z,97658.41
2022-11-07T10:59:52.267Z,97653.28
2022-11-07T11:02:21.662Z,97652.38
2022-11-07T11:04:51.109Z,97655.84
2022-11-07T11:07:19.461Z,97653.28
2022-11-07T11:09:53.506Z,97656.69
2022-11-07T11:12:34.741Z,97648.19
2022-11-07T11:15:04.535Z,97650.78
2022-11-07T11:17:31.115Z,97649.06
2022-11-07T11:19:57.748Z,97638.81
2022-11-07T11:22:24.735Z,97633.56
2022-11-07T11:25:25.414Z,97636.25
2022-11-07T11:27:58.190Z,97625.13
2022-11-07T11:30:24.690Z,97614.03
2022-11-07T11:33:06.399Z,97614.03
2022-11-07T11:35:51.883Z,97598.47
2022-11-07T11:38:33.135Z,97614.00
2022-11-07T11:41:07.676Z,97606.28
2022-11-07T11:43:41.586Z,97598.38
2022-11-07T11:46:26.868Z,97609.72
2022-11-07T11:48:57.005Z,97601.16
2022-11-07T11:51:42.243Z,97584.63
2022-11-07T11:54:09.916Z,97602.88
2022-11-07T11:56:45.616Z,97597.75
2022-11-07T11:59:41.617Z,97596.91
2022-11-07T12:02:50.125Z,97600.34
2022-11-07T12:05:51.656Z,97591.72
2022-11-07T12:08:35.714Z,97598.63
2022-11-07T12:11:04.143Z,97585.00
2022-11-07T12:13:34.383Z,97593.50
2022-11-07T12:16:00.775Z,97583.28
2022-11-07T12:18:49.128Z,97587.56
2022-11-07T12:21:48.405Z,97570.22
2022-11-07T12:24:46.229Z,97576.44
2022-11-07T12:27:15.567Z,97572.19
2022-11-07T12:29:54.590Z,97571.25
2022-11-07T12:32:20.966Z,97567.03
2022-11-07T12:35:08.470Z,97567.03
2022-11-07T12:37:59.960Z,97555.06
2022-11-07T12:41:03.987Z,97553.38
2022-11-07T12:43:33.424Z,97546.56
2022-11-07T12:46:17.219Z,97539.34
2022-11-07T12:49:17.281Z,97561.94
2022-11-07T12:51:49.960Z,97557.66
2022-11-07T12:54:28.535Z,97555.94
2022-11-07T12:56:55.059Z,97560.22
2022-11-07T12:59:29.360Z,97538.66
2022-11-07T13:02:17.387Z,97562.78
2022-11-07T13:04:49.439Z,97541.97
2022-11-07T13:07:24.000Z,97558.50
2022-11-07T13:09:57.887Z,97560.22
2022-11-07T13:12:44.594Z,97562.78
2022-11-07T13:15:11.985Z,97542.06
2022-11-07T13:17:40.581Z,97560.16
2022-11-07T13:20:22.096Z,97559.38
2022-11-07T13:22:52.871Z,97460.66
2022-11-07T13:25:23.400Z,97553.41
2022-11-07T13:27:56.112Z,97560.22
2022-11-07T13:30:23.403Z,97561.97
2022-11-07T13:32:50.783Z,97567.06
2022-11-07T13:35:23.311Z,97570.50
2022-11-07T13:38:12.542Z,97570.47
2022-11-07T13:40:44.108Z,97566.97
2022-11-07T13:43:12.394Z,97575.63
2022-11-07T13:45:49.964Z,97548.03
2022-11-07T13:48:23.877Z,97568.81
2022-11-07T13:51:03.200Z,97572.25
2022-11-07T13:53:36.112Z,97568.81
2022-11-07T13:56:28.812Z,97559.47
2022-11-07T13:58:55.421Z,97566.31
2022-11-07T14:01:22.590Z,97561.19
2022-11-07T14:03:49.238Z,97563.72
2022-11-07T14:06:15.869Z,97563.75
2022-11-07T14:08:45.232Z,97563.72
2022-11-07T14:11:19.497Z,97551.66
2022-11-07T14:13:47.593Z,97569.75
2022-11-07T14:16:17.435Z,97567.19
2022-11-07T14:18:49.951Z,97572.31
2022-11-07T14:21:27.573Z,97569.75
2022-11-07T14:23:54.445Z,97578.28
2022-11-07T14:26:24.016Z,97576.59
2022-11-07T14:28:50.535Z,97581.72
2022-11-07T14:31:30.622Z,97580.84
2022-11-07T14:33:59.583Z,97584.28
2022-11-07T14:36:26.785Z,97573.88
2022-11-07T14:38:56.278Z,97576.59
2022-11-07T14:41:22.928Z,97577.38
2022-11-07T14:43:49.750Z,97574.91
2022-11-07T14:46:19.450Z,97574.91
2022-11-07T14:48:47.361Z,97577.47
2022-11-07T14:51:15.047Z,97568.75
2022-11-07T14:54:05.492Z,97582.59
2022-11-07T14:56:33.782Z,97578.31
2022-11-07T14:59:00.533Z,97580.03
2022-11-07T15:01:32.457Z,97574.91
2022-11-07T15:04:15.708Z,97575.75
2022-11-07T15:06:43.781Z,97574.91
2022-11-07T15:09:11.233Z,97569.78
2022-11-07T15:11:42.378Z,97560.16
2022-11-07T15:14:41.367Z,97566.34
2022-11-07T15:17:20.483Z,97568.03
2022-11-07T15:19:56.627Z,97545.53
2022-11-07T15:22:31.552Z,97568.91
2022-11-07T15:24:58.076Z,97564.63
2022-11-07T15:27:33.354Z,97563.72
2022-11-07T15:30:01.017Z,97569.75
2022-11-07T15:32:37.020Z,97568.88
2022-11-07T15:35:38.054Z,97556.94
2022-11-07T15:38:00.857Z,97557.78
2022-11-07T15:40:28.219Z,97567.19
2022-11-07T15:42:54.697Z,97560.34
2022-11-07T15:45:21.251Z,97557.66
2022-11-07T15:47:47.764Z,97552.59
2022-11-07T15:50:14.123Z,97565.47
2022-11-07T15:52:40.660Z,97565.47
2022-11-07T15:55:11.937Z,97561.16
2022-11-07T15:57:38.485Z,97571.47
2022-11-07T16:00:05.583Z,97559.53
2022-11-07T16:02:32.191Z,97572.34
2022-11-07T16:04:58.737Z,97590.28
2022-11-07T16:07:25.220Z,97561.09
2022-11-07T16:09:51.827Z,97574.03
2022-11-07T16:12:18.823Z,97574.03
2022-11-07T16:14:45.379Z,97570.63
2022-11-07T16:17:18.487Z,97569.75
2022-11-07T16:19:46.098Z,97575.75
2022-11-07T16:22:13.436Z,97560.19
2022-11-07T16:24:39.948Z,97574.06
2022-11-07T16:27:06.644Z,97573.19
2022-11-07T16:29:33.145Z,97574.88
2022-11-07T16:31:59.621Z,97580.88
2022-11-07T16:34:26.154Z,97567.16
2022-11-07T16:36:52.691Z,97567.16
2022-11-07T16:39:21.026Z,97583.50
2022-11-07T16:41:47.934Z,97580.06
2022-11-07T16:44:14.566Z,97584.31
2022-11-07T16:46:41.131Z,97574.06
2022-11-07T16:49:29.570Z,97576.44
2022-11-07T16:51:56.114Z,97579.13
2022-11-07T16:54:22.584Z,97581.66
2022-11-07T16:56:51.323Z,97585.97
2022-11-07T16:59:19.221Z,97593.69
2022-11-07T17:01:45.813Z,97578.19
2022-11-07T17:04:12.386Z,97593.69
2022-11-07T17:06:43.315Z,97583.28
2022-11-07T17:09:13.536Z,97590.91
2022-11-07T17:11:40.258Z,97596.25
2022-11-07T17:14:06.749Z,97592.88
2022-11-07T17:16:36.840Z,97598.00
2022-11-07T17:19:04.584Z,97591.03
2022-11-07T17:21:32.677Z,97583.31
2022-11-07T17:24:00.616Z,97588.56
2022-11-07T17:26:31.160Z,97586.78
2022-11-07T17:28:58.154Z,97580.75
2022-11-07T17:31:24.745Z,97592.00
2022-11-07T17:33:51.232Z,97590.28
2022-11-07T17:36:25.233Z,97594.47
2022-11-07T17:38:52.904Z,97588.41
2022-11-07T17:41:19.579Z,97593.69
2022-11-07T17:43:46.658Z,97589.34
2022-11-07T17:46:26.148Z,97597.97
2022-11-07T17:48:53.886Z,97602.25
2022-11-07T17:51:21.386Z,97601.38
2022-11-07T17:53:48.310Z,97599.63
2022-11-07T17:56:19.440Z,97599.69
2022-11-07T17:58:46.401Z,97591.13
2022-11-07T18:01:16.835Z,97596.25
2022-11-07T18:03:44.023Z,97594.56
2022-11-07T18:06:10.799Z,97585.97
2022-11-07T18:08:51.777Z,97572.16
2022-11-07T18:11:19.794Z,97575.72
2022-11-07T18:13:46.330Z,97574.03
2022-11-07T18:16:17.942Z,97568.03
2022-11-07T18:18:44.421Z,97572.34
2022-11-07T18:21:10.945Z,97576.59
2022-11-07T18:23:37.497Z,97568.91
2022-11-07T18:26:10.831Z,97576.59
2022-11-07T18:28:38.187Z,97577.47
2022-11-07T18:31:09.637Z,97573.06
2022-11-07T18:33:36.295Z,97563.63
2022-11-07T18:36:04.536Z,97574.03
2022-11-07T18:38:31.263Z,97575.72
2022-11-07T18:41:02.385Z,97565.34
2022-11-07T18:43:29.053Z,97567.22
2022-11-07T18:45:55.738Z,97569.78
2022-11-07T18:48:22.391Z,97564.66
2022-11-07T18:50:49.012Z,97564.66
2022-11-07T18:53:15.537Z,97568.00
2022-11-07T18:55:42.127Z,97562.91
2022-11-07T18:58:08.654Z,97564.63
2022-11-07T19:00:35.399Z,97573.16
2022-11-07T19:03:02.158Z,97570.59
2022-11-07T19:05:28.871Z,97562.91
2022-11-07T19:07:55.419Z,97567.19
2022-11-07T19:10:21.989Z,97567.19
2022-11-07T19:12:48.539Z,97569.75
2022-11-07T19:15:15.054Z,97569.75
2022-11-07T19:17:41.603Z,97575.72
2022-11-07T19:20:08.719Z,97573.16
2022-11-07T19:22:35.214Z,97576.50
2022-11-07T19:25:01.692Z,97579.16
2022-11-07T19:27:29.666Z,97575.72
2022-11-07T19:29:56.590Z,97585.16
2022-11-07T19:32:23.118Z,97574.78
2022-11-07T19:34:49.604Z,97573.88
2022-11-07T19:37:16.120Z,97588.50
2022-11-07T19:39:42.683Z,97584.28
2022-11-07T19:42:09.187Z,97586.84
2022-11-07T19:44:36.389Z,97587.69
2022-11-07T19:47:03.052Z,97585.97
2022-11-07T19:49:29.559Z,97585.91
2022-11-07T19:51:56.088Z,97588.50
2022-11-07T19:54:22.582Z,97585.03
2022-11-07T19:56:51.965Z,97591.06
2022-11-07T19:59:22.745Z,97599.56
2022-11-07T20:02:10.744Z,97598.72
2022-11-07T20:04:36.458Z,97603.03
2022-11-07T20:07:02.973Z,97595.34
2022-11-07T20:09:29.579Z,97598.75
2022-11-07T20:11:56.087Z,97591.91
2022-11-07T20:14:22.577Z,97597.91
2022-11-07T20:16:49.108Z,97592.78
2022-11-07T20:19:15.618Z,97583.19
2022-11-07T20:21:42.107Z,97593.59
2022-11-07T20:24:09.267Z,97603.88
2022-11-07T20:26:35.860Z,97600.47
2022-11-07T20:29:02.450Z,97601.28
2022-11-07T20:31:32.981Z,97611.53
2022-11-07T20:34:00.705Z,97613.25
2022-11-07T20:36:27.298Z,97600.34
2022-11-07T20:38:54.837Z,97604.72
2022-11-07T20:41:23.574Z,97601.25
2022-11-07T20:44:10.135Z,97609.81
2022-11-07T20:46:38.103Z,97609.84
2022-11-07T20:49:05.999Z,97610.69
2022-11-07T20:51:32.762Z,97604.72
2022-11-07T20:53:59.270Z,97604.72
2022-11-07T20:56:26.536Z,97609.84
2022-11-07T20:58:53.146Z,97598.72
2022-11-07T21:01:21.485Z,97608.97
2022-11-07T21:03:48.201Z,97610.69
2022-11-07T21:06:14.878Z,97610.69
2022-11-07T21:08:43.434Z,97611.47
2022-11-07T21:11:10.202Z,97607.13
2022-11-07T21:13:36.771Z,97621.72
2022-11-07T21:16:03.418Z,97617.41
2022-11-07T21:18:29.964Z,97620.03
2022-11-07T21:21:09.595Z,97618.31
2022-11-07T21:23:36.665Z,97613.91
2022-11-07T21:26:10.945Z,97619.09
2022-11-07T21:28:40.851Z,97624.28
2022-11-07T21:31:10.199Z,97626.84
2022-11-07T21:33:36.678Z,97623.41
2022-11-07T21:36:10.640Z,97624.28
2022-11-07T21:38:37.720Z,97628.53
2022-11-07T21:41:07.934Z,97627.72
2022-11-07T21:43:34.638Z,97628.56
2022-11-07T21:46:08.606Z,97626.00
2022-11-07T21:48:35.538Z,97620.00
2022-11-07T21:51:08.916Z,97626.81
2022-11-07T21:53:38.051Z,97613.16
2022-11-07T21:56:05.839Z,97607.13
2022-11-07T21:58:32.386Z,97615.72
2022-11-07T22:01:02.906Z,97614.84
2022-11-07T22:03:58.873Z,97619.97
2022-11-07T22:06:19.468Z,97625.09
2022-11-07T22:08:49.352Z,97609.47
2022-11-07T22:11:16.069Z,97628.53
2022-11-07T22:13:42.554Z,97620.84
2022-11-07T22:16:11.916Z,97622.53
2022-11-07T22:18:38.403Z,97614.00
2022-11-07T22:21:05.560Z,97617.41
2022-11-07T22:23:33.263Z,97608.81
2022-11-07T22:26:19.676Z,97613.13
2022-11-07T22:28:46.603Z,97605.44
2022-11-07T22:31:23.521Z,97611.41
2022-11-07T22:33:50.512Z,97601.06
2022-11-07T22:36:17.108Z,97602.00
2022-11-07T22:38:43.968Z,97602.88
2022-11-07T22:41:13.155Z,97593.34
2022-11-07T22:43:39.681Z,97602.00
2022-11-07T22:46:08.429Z,97599.41
2022-11-07T22:48:35.212Z,97592.50
2022-11-07T22:51:09.487Z,97601.13
2022-11-07T22:53:35.985Z,97604.56
2022-11-07T22:56:12.633Z,97602.88
2022-11-07T22:58:39.289Z,97597.66
2022-11-07T23:01:06.017Z,97593.41
2022-11-07T23:03:32.760Z,97596.88
2022-11-07T23:06:04.290Z,97602.00
2022-11-07T23:08:32.672Z,97589.88
2022-11-07T23:13:50.717Z,97567.28
2022-11-07T23:16:43.556Z,97602.00
2022-11-07T23:19:12.088Z,97598.56
2022-11-07T23:21:38.646Z,97613.06
2022-11-07T23:24:05.781Z,97600.28
2022-11-07T23:26:35.098Z,97607.06
2022-11-07T23:29:11.634Z,97601.94
2022-11-07T23:31:39.561Z,97596.84
2022-11-07T23:34:06.056Z,97588.22
2022-11-07T23:36:32.609Z,97594.28
2022-11-07T23:39:06.040Z,97590.84
2022-11-07T23:41:32.574Z,97588.28
2022-11-07T23:43:59.370Z,97583.06
2022-11-07T23:46:44.019Z,97584.03
2022-11-07T23:49:28.857Z,97587.47
2022-11-07T23:51:55.713Z,97566.81
2022-11-07T23:54:40.535Z,97573.72
2022-11-07T23:57:07.009Z,97571.06
2022-11-07T23:59:53.647Z,97578.03
